Time;durP1;ratioP1;P1;durP2;ratioP2;P2;SDS_P1;SDS_P2;PMS_P1;PMS_P2;Temp;Humidity;BMP_temperature;BMP_pressure;BME280_temperature;BME280_humidity;BME280_pressure;Samples;Min_cycle;Max_cycle;Signal;HPM_P1;HPM_P2
2022/12/25 00:00:32;;;;;;;49.05;9.73;;;4.90;99.90;;;;;;5036442;28;20037;-70
2022/12/25 00:02:57;;;;;;;33.35;9.88;;;5.00;99.90;;;;;;5041859;28;20049;-70
2022/12/25 00:05:23;;;;;;;45.83;10.10;;;5.00;99.90;;;;;;5050483;28;20166;-70
2022/12/25 00:07:49;;;;;;;40.25;8.73;;;5.10;99.90;;;;;;5041992;28;20042;-70
2022/12/25 00:10:15;;;;;;;38.45;9.18;;;5.10;99.90;;;;;;5032524;28;20045;-71
2022/12/25 00:12:40;;;;;;;42.10;8.02;;;5.00;99.90;;;;;;5030600;28;20064;-70
2022/12/25 00:15:06;;;;;;;39.85;9.32;;;5.00;99.90;;;;;;5039571;28;20052;-70
2022/12/25 00:17:32;;;;;;;41.13;8.32;;;5.00;99.90;;;;;;5038373;28;20052;-70
2022/12/25 00:19:58;;;;;;;36.40;8.43;;;5.10;99.90;;;;;;5030151;28;20049;-71
2022/12/25 00:22:24;;;;;;;34.00;8.02;;;5.10;99.90;;;;;;5033802;28;20050;-70
2022/12/25 00:24:49;;;;;;;29.52;9.00;;;5.10;99.90;;;;;;5031602;28;20127;-70
2022/12/25 00:27:15;;;;;;;33.60;9.65;;;5.00;99.90;;;;;;5040355;28;20033;-70
2022/12/25 00:29:41;;;;;;;;;;;5.00;99.90;;;;;;5036860;28;20064;-70
2022/12/25 00:32:08;;;;;;;30.50;8.07;;;5.00;99.90;;;;;;5029618;28;19924;-70
2022/12/25 00:34:33;;;;;;;34.30;8.35;;;5.00;99.90;;;;;;5029614;28;20083;-71
2022/12/25 00:37:00;;;;;;;28.55;8.95;;;4.90;99.90;;;;;;5031702;28;20474;-70
2022/12/25 00:39:25;;;;;;;32.35;7.28;;;4.90;99.90;;;;;;5038985;28;20147;-70
2022/12/25 00:44:35;;;;;;;34.50;8.25;;;4.80;99.90;;;;;;5040005;28;20123;-70
2022/12/25 00:47:01;;;;;;;29.90;8.60;;;4.80;99.90;;;;;;5033135;28;20049;-70
2022/12/25 00:49:27;;;;;;;26.77;7.38;;;4.80;99.90;;;;;;5042219;28;20045;-71
2022/12/25 00:51:52;;;;;;;34.92;8.30;;;4.80;99.90;;;;;;5039043;28;20045;-70
2022/12/25 00:54:19;;;;;;;44.92;8.88;;;4.80;99.90;;;;;;5035199;28;20037;-71
2022/12/25 00:56:45;;;;;;;34.47;8.35;;;4.80;99.90;;;;;;5035057;28;20073;-71
2022/12/25 00:59:12;;;;;;;34.78;8.02;;;4.80;99.90;;;;;;5035394;28;20057;-70
2022/12/25 01:01:38;;;;;;;39.67;8.52;;;4.80;99.90;;;;;;5036890;28;20656;-70
2022/12/25 01:04:04;;;;;;;38.65;7.47;;;4.80;99.90;;;;;;5031018;28;20049;-70
2022/12/25 01:06:30;;;;;;;;;;;4.80;99.90;;;;;;5040890;28;20390;-70
2022/12/25 01:11:45;;;;;;;38.25;8.07;;;4.80;99.90;;;;;;5024269;28;20053;-70
2022/12/25 01:14:11;;;;;;;39.30;8.48;;;4.90;99.90;;;;;;5039475;28;20055;-70
2022/12/25 01:16:36;;;;;;;33.80;7.63;;;4.90;99.90;;;;;;5035228;28;20068;-70
2022/12/25 01:19:02;;;;;;;36.30;7.57;;;4.90;99.90;;;;;;5047788;28;20060;-70
2022/12/25 01:21:28;;;;;;;32.85;8.02;;;4.90;99.90;;;;;;5048887;28;20107;-70
2022/12/25 01:23:54;;;;;;;38.50;7.93;;;4.90;99.90;;;;;;5049350;28;20063;-70
2022/12/25 01:26:23;;;;;;;19.40;7.63;;;4.90;99.90;;;;;;5048479;28;20053;-70
2022/12/25 01:28:50;;;;;;;28.30;7.43;;;5.00;99.90;;;;;;5044196;28;20160;-71
2022/12/25 01:31:17;;;;;;;30.67;7.78;;;5.00;99.90;;;;;;5039935;28;20553;-70
2022/12/25 01:33:44;;;;;;;27.48;7.13;;;5.10;99.90;;;;;;5049246;28;20045;-70
2022/12/25 01:36:30;;;;;;;36.67;8.05;;;5.10;99.90;;;;;;5039203;28;20040;-70
2022/12/25 01:38:56;;;;;;;30.17;8.13;;;5.20;99.90;;;;;;5047283;28;20510;-70
2022/12/25 01:41:23;;;;;;;29.85;8.30;;;5.30;99.90;;;;;;5046754;28;20055;-70
2022/12/25 01:44:27;;;;;;;31.30;7.45;;;5.30;99.90;;;;;;5048278;28;20474;-71
2022/12/25 01:46:52;;;;;;;38.95;9.77;;;5.30;99.90;;;;;;5045870;28;20052;-70
2022/12/25 01:49:22;;;;;;;34.28;8.57;;;5.40;99.90;;;;;;5048847;28;20049;-70
2022/12/25 01:52:19;;;;;;;27.33;7.40;;;5.40;99.90;;;;;;5048232;28;20053;-70
2022/12/25 01:54:58;;;;;;;25.00;8.10;;;5.40;99.90;;;;;;5047343;28;20071;-70
2022/12/25 01:57:31;;;;;;;38.67;9.57;;;5.40;99.90;;;;;;5048557;28;20067;-70
2022/12/25 01:59:58;;;;;;;39.90;9.02;;;5.50;99.90;;;;;;5046516;28;20053;-71
2022/12/25 02:02:24;;;;;;;33.70;8.10;;;5.40;99.90;;;;;;5028242;28;20100;-70
2022/12/25 02:04:57;;;;;;;26.42;7.43;;;5.50;99.90;;;;;;5029402;28;20516;-70
2022/12/25 02:07:25;;;;;;;41.97;9.70;;;5.50;99.90;;;;;;5028309;28;20381;-70
2022/12/25 02:09:52;;;;;;;28.70;7.35;;;5.50;99.90;;;;;;5036935;28;20087;-70
2022/12/25 02:12:24;;;;;;;27.50;7.65;;;5.60;99.90;;;;;;5048304;28;20147;-71
2022/12/25 02:14:52;;;;;;;29.75;8.25;;;5.60;99.90;;;;;;5046970;28;20122;-70
2022/12/25 02:17:26;;;;;;;26.00;8.15;;;5.60;99.90;;;;;;5046515;28;20080;-70
2022/12/25 02:20:29;;;;;;;28.13;8.50;;;5.60;99.90;;;;;;5030356;28;20518;-70
2022/12/25 02:23:17;;;;;;;29.45;8.02;;;5.60;99.90;;;;;;5028477;28;20054;-70
2022/12/25 02:25:57;;;;;;;42.67;8.75;;;5.70;99.90;;;;;;5029254;28;20049;-70
2022/12/25 02:28:25;;;;;;;30.10;8.10;;;5.70;99.90;;;;;;5028811;28;20068;-70
2022/12/25 02:31:00;;;;;;;39.70;8.43;;;5.80;99.90;;;;;;5027346;28;20049;-70
2022/12/25 02:34:01;;;;;;;28.35;7.53;;;5.80;99.90;;;;;;5047570;28;20193;-70
2022/12/25 02:36:33;;;;;;;26.40;9.10;;;5.80;99.90;;;;;;5047836;28;20124;-71
2022/12/25 02:41:47;;;;;;;32.70;7.15;;;5.80;99.90;;;;;;5034548;28;20048;-71
2022/12/25 03:06:59;;;;;;;33.05;7.43;;;6.10;99.90;;;;;;5048913;28;20060;-70
2022/12/25 03:12:39;;;;;;;21.42;6.90;;;6.20;99.90;;;;;;5048544;28;20053;-71
2022/12/25 03:17:54;;;;;;;31.55;8.15;;;6.20;99.90;;;;;;5051514;28;20513;-70
2022/12/25 03:28:33;;;;;;;34.00;7.28;;;6.30;99.90;;;;;;5050404;28;20175;-70
2022/12/25 03:31:36;;;;;;;25.42;7.82;;;6.30;99.90;;;;;;5044451;28;20499;-71
2022/12/25 04:36:08;;;;;;;24.50;7.75;;;7.00;99.90;;;;;;5050480;28;20059;-71
2022/12/25 04:38:34;;;;;;;28.25;7.40;;;7.00;99.90;;;;;;5049077;28;20051;-70
2022/12/25 04:41:01;;;;;;;30.50;9.75;;;7.10;99.90;;;;;;5049045;28;20049;-70
2022/12/25 04:43:27;;;;;;;23.13;7.78;;;7.10;99.90;;;;;;5050147;28;20077;-71
2022/12/25 04:45:53;;;;;;;27.05;8.20;;;7.10;99.90;;;;;;5050141;28;20084;-70
2022/12/25 04:48:19;;;;;;;28.40;7.30;;;7.10;99.90;;;;;;5049711;28;20057;-71
2022/12/25 04:50:45;;;;;;;25.08;8.07;;;7.20;99.90;;;;;;5050215;28;20853;-71
2022/12/25 04:53:10;;;;;;;25.45;7.55;;;7.20;99.90;;;;;;5049678;28;20119;-70
2022/12/25 04:55:36;;;;;;;26.33;6.68;;;7.20;99.90;;;;;;5050145;28;20613;-70
2022/12/25 04:58:02;;;;;;;29.67;7.70;;;7.20;99.90;;;;;;5049674;28;20567;-70
2022/12/25 05:00:28;;;;;;;27.83;6.78;;;7.20;99.90;;;;;;5049603;28;20049;-70
2022/12/25 05:02:54;;;;;;;24.48;8.57;;;7.10;99.90;;;;;;5049492;28;20195;-71
2022/12/25 05:05:19;;;;;;;33.10;7.60;;;7.10;99.90;;;;;;5039563;28;20128;-71
2022/12/25 05:07:45;;;;;;;28.58;7.78;;;7.10;99.90;;;;;;5039629;28;20045;-70
2022/12/25 05:10:11;;;;;;;20.13;6.93;;;7.10;99.90;;;;;;5038575;28;20092;-70
2022/12/25 05:12:36;;;;;;;31.65;7.47;;;7.20;99.90;;;;;;5049134;28;20498;-70
2022/12/25 05:15:02;;;;;;;30.50;7.80;;;7.20;99.90;;;;;;5048345;28;20041;-70
2022/12/25 05:17:28;;;;;;;34.38;8.23;;;7.30;99.90;;;;;;5048930;28;20052;-70
2022/12/25 05:19:54;;;;;;;27.58;8.48;;;7.20;99.90;;;;;;5050069;28;20052;-70
2022/12/25 05:22:19;;;;;;;26.48;9.50;;;7.30;99.90;;;;;;5044150;28;20095;-71
2022/12/25 05:24:45;;;;;;;26.13;8.43;;;7.40;99.90;;;;;;5029645;28;20090;-71
2022/12/25 05:27:10;;;;;;;25.67;7.93;;;7.40;99.90;;;;;;5048551;28;20540;-70
2022/12/25 05:29:36;;;;;;;31.85;9.05;;;7.40;99.90;;;;;;5040203;28;20685;-70
2022/12/25 05:32:02;;;;;;;36.00;9.77;;;7.50;99.90;;;;;;5044727;28;20057;-70
2022/12/25 05:34:27;;;;;;;39.15;10.60;;;7.70;99.90;;;;;;5049310;28;20105;-70
2022/12/25 05:36:55;;;;;;;40.30;9.93;;;7.90;99.90;;;;;;5049143;28;20152;-70
2022/12/25 05:39:21;;;;;;;35.00;10.98;;;8.00;99.90;;;;;;5038625;28;20046;-71
2022/12/25 05:41:46;;;;;;;34.28;9.98;;;8.10;99.90;;;;;;5029051;28;20075;-70
2022/12/25 05:44:12;;;;;;;32.17;10.63;;;8.10;99.90;;;;;;5029760;28;20052;-70
2022/12/25 05:46:38;;;;;;;33.08;9.38;;;8.20;99.90;;;;;;5039032;28;20044;-70
2022/12/25 05:49:04;;;;;;;31.70;10.50;;;8.30;99.90;;;;;;5049592;28;20045;-70
2022/12/25 05:51:30;;;;;;;25.13;9.10;;;8.30;99.90;;;;;;5048335;28;20052;-71
2022/12/25 05:53:56;;;;;;;31.92;10.05;;;8.40;99.90;;;;;;5049253;28;20375;-70
2022/12/25 05:56:22;;;;;;;33.72;8.75;;;8.40;99.90;;;;;;5048544;28;20060;-71
2022/12/25 05:58:48;;;;;;;32.17;9.02;;;8.40;99.90;;;;;;5049331;28;20057;-71
2022/12/25 06:01:19;;;;;;;27.08;8.60;;;8.40;99.90;;;;;;5047371;28;20084;-70
2022/12/25 06:03:45;;;;;;;27.02;9.73;;;8.40;99.90;;;;;;5047528;28;20041;-70
2022/12/25 06:06:11;;;;;;;;;;;8.40;99.90;;;;;;5040069;28;20588;-70
2022/12/25 06:08:37;;;;;;;28.75;8.32;;;8.50;99.90;;;;;;5040233;28;19924;-70
2022/12/25 06:11:07;;;;;;;22.10;8.23;;;8.50;99.90;;;;;;5047700;28;20489;-70
2022/12/25 06:13:34;;;;;;;26.70;8.60;;;8.50;99.90;;;;;;5048941;28;20091;-70
2022/12/25 06:16:08;;;;;;;23.33;8.10;;;8.50;99.90;;;;;;5047709;28;20430;-70
2022/12/25 06:18:36;;;;;;;23.35;8.48;;;8.60;99.90;;;;;;5048601;28;20045;-70
2022/12/25 06:21:06;;;;;;;23.85;9.15;;;8.60;99.90;;;;;;5047452;28;20504;-70
2022/12/25 06:23:32;;;;;;;20.67;7.82;;;8.60;99.90;;;;;;5048655;28;20045;-70
2022/12/25 06:25:58;;;;;;;17.40;7.80;;;8.50;99.90;;;;;;5048661;28;20049;-70
2022/12/25 06:28:24;;;;;;;29.58;7.72;;;8.50;99.90;;;;;;5048034;28;20061;-71
2022/12/25 06:30:49;;;;;;;22.90;7.55;;;8.50;99.90;;;;;;5043269;28;20111;-70
2022/12/25 06:33:15;;;;;;;19.27;7.50;;;8.50;99.90;;;;;;5027444;28;20052;-70
2022/12/25 06:35:41;;;;;;;30.42;8.20;;;8.50;99.90;;;;;;5044861;28;20079;-70
2022/12/25 06:38:06;;;;;;;24.85;7.93;;;8.50;99.90;;;;;;5048832;28;20085;-70
2022/12/25 06:40:33;;;;;;;22.25;8.18;;;8.50;99.90;;;;;;5039695;28;20042;-70
2022/12/25 06:42:59;;;;;;;21.27;7.32;;;8.50;99.90;;;;;;5032460;28;20659;-70
2022/12/25 06:45:25;;;;;;;20.40;7.53;;;8.50;99.90;;;;;;5032668;28;20046;-71
2022/12/25 06:47:50;;;;;;;22.77;6.80;;;8.50;99.90;;;;;;5032676;28;20144;-70
2022/12/25 06:50:16;;;;;;;21.35;7.30;;;8.50;99.90;;;;;;5056778;28;20053;-70
2022/12/25 06:52:42;;;;;;;20.58;7.00;;;8.50;99.90;;;;;;5035516;28;20050;-71
2022/12/25 06:55:08;;;;;;;20.02;7.13;;;8.50;99.90;;;;;;5034030;28;20049;-71
2022/12/25 06:57:33;;;;;;;;;;;8.50;99.90;;;;;;5037412;28;20106;-70
2022/12/25 06:59:59;;;;;;;23.75;7.13;;;8.50;99.90;;;;;;5052376;28;19924;-70
2022/12/25 07:02:25;;;;;;;28.60;7.60;;;8.40;99.90;;;;;;5042398;28;20053;-70
2022/12/25 07:04:52;;;;;;;15.43;6.85;;;8.40;99.90;;;;;;5032196;28;20049;-70
2022/12/25 07:07:18;;;;;;;20.33;6.78;;;8.40;99.90;;;;;;5031919;28;20084;-70
2022/12/25 07:09:44;;;;;;;22.70;6.95;;;8.40;99.90;;;;;;5035922;28;20040;-70
2022/12/25 07:12:15;;;;;;;16.58;6.00;;;8.40;99.90;;;;;;5045396;28;20052;-70
2022/12/25 07:14:41;;;;;;;21.85;6.35;;;8.30;99.90;;;;;;5047378;28;20056;-70
2022/12/25 07:17:06;;;;;;;;;;;8.30;99.90;;;;;;5050090;28;20049;-68
2022/12/25 07:19:32;;;;;;;25.98;7.70;;;8.30;99.90;;;;;;5051384;28;20071;-69
2022/12/25 07:21:58;;;;;;;19.73;6.63;;;8.20;99.90;;;;;;5049854;28;20055;-71
2022/12/25 07:24:23;;;;;;;20.98;6.43;;;8.20;99.90;;;;;;5050859;28;20045;-71
2022/12/25 07:26:50;;;;;;;18.15;6.32;;;8.30;99.90;;;;;;5050937;28;20051;-71
2022/12/25 07:29:18;;;;;;;13.75;5.60;;;8.20;99.90;;;;;;5051770;28;20093;-71
2022/12/25 07:31:44;;;;;;;15.95;6.10;;;8.20;99.90;;;;;;5050819;28;20051;-70
2022/12/25 07:34:09;;;;;;;15.02;5.82;;;8.20;99.90;;;;;;5036510;28;20042;-71
2022/12/25 07:36:35;;;;;;;17.35;5.15;;;8.20;99.90;;;;;;5040958;28;20080;-71
2022/12/25 07:39:01;;;;;;;17.63;5.75;;;8.30;99.90;;;;;;5051933;28;20056;-71
2022/12/25 07:41:26;;;;;;;19.30;7.20;;;8.30;99.90;;;;;;5050629;28;20568;-70
2022/12/25 07:43:53;;;;;;;17.75;6.28;;;8.30;99.90;;;;;;5048978;28;20253;-70
2022/12/25 07:46:20;;;;;;;17.92;5.75;;;8.30;99.90;;;;;;5050883;28;20142;-70
2022/12/25 07:48:45;;;;;;;21.17;5.32;;;8.40;99.90;;;;;;5051046;28;20041;-70
2022/12/25 07:51:13;;;;;;;20.73;5.07;;;8.40;99.90;;;;;;5051105;28;20037;-69
2022/12/25 07:53:39;;;;;;;17.98;5.43;;;8.40;99.90;;;;;;5045847;28;20045;-70
2022/12/25 07:56:06;;;;;;;;;;;8.40;99.90;;;;;;5041619;28;20541;-70
2022/12/25 07:58:32;;;;;;;15.20;5.55;;;8.30;99.90;;;;;;5046332;28;19924;-69
2022/12/25 08:01:04;;;;;;;17.15;6.22;;;8.20;99.90;;;;;;5042989;28;20048;-71
2022/12/25 08:03:30;;;;;;;13.98;5.97;;;8.20;99.90;;;;;;5044933;28;20132;-70
2022/12/25 08:06:02;;;;;;;;;;;8.10;99.90;;;;;;5030872;28;20092;-69
2022/12/25 08:08:29;;;;;;;22.77;6.20;;;8.00;99.90;;;;;;5035003;28;20003;-70
2022/12/25 08:10:54;;;;;;;;;;;8.00;99.90;;;;;;5051259;28;20490;-70
2022/12/25 08:13:20;;;;;;;17.10;6.15;;;7.90;99.90;;;;;;5050650;28;19927;-70
2022/12/25 08:15:45;;;;;;;20.45;6.68;;;7.90;99.90;;;;;;5045322;28;20505;-70
2022/12/25 08:18:11;;;;;;;21.27;6.93;;;7.90;99.90;;;;;;5038292;28;20053;-70
2022/12/25 08:20:37;;;;;;;24.38;7.18;;;7.80;99.90;;;;;;5039918;28;20063;-71
2022/12/25 08:23:03;;;;;;;19.42;7.13;;;7.80;99.90;;;;;;5042660;28;20045;-69
2022/12/25 08:25:30;;;;;;;16.20;5.90;;;7.80;99.90;;;;;;5050953;28;20056;-70
2022/12/25 08:27:55;;;;;;;;;;;7.80;99.90;;;;;;5050272;28;20093;-70
2022/12/25 08:30:21;;;;;;;25.27;6.10;;;7.80;99.90;;;;;;5048453;28;19967;-70
2022/12/25 08:32:47;;;;;;;19.55;6.38;;;7.80;99.90;;;;;;5044094;28;20146;-70
2022/12/25 08:35:13;;;;;;;;;;;7.80;99.90;;;;;;5046805;28;20053;-69
2022/12/25 08:37:39;;;;;;;15.20;6.35;;;7.80;99.90;;;;;;5032513;28;19979;-73
2022/12/25 08:40:05;;;;;;;17.75;7.38;;;7.80;99.90;;;;;;5038359;28;20055;-71
2022/12/25 08:42:31;;;;;;;17.30;6.45;;;7.90;99.90;;;;;;5048199;28;20049;-72
2022/12/25 08:44:56;;;;;;;16.65;6.82;;;8.00;99.90;;;;;;5031510;28;20045;-72
2022/12/25 08:47:22;;;;;;;12.02;5.85;;;8.10;99.90;;;;;;5029971;28;20053;-70
2022/12/25 08:49:48;;;;;;;22.20;6.07;;;8.10;99.90;;;;;;5030241;28;20137;-71
2022/12/25 08:52:14;;;;;;;16.80;5.97;;;8.10;99.90;;;;;;5048050;28;20445;-70
2022/12/25 08:54:39;;;;;;;22.00;6.10;;;8.20;99.90;;;;;;5050262;28;20777;-71
2022/12/25 08:57:05;;;;;;;17.25;6.35;;;8.20;99.90;;;;;;5049720;28;20044;-70
2022/12/25 08:59:31;;;;;;;17.23;6.82;;;8.30;99.90;;;;;;5050023;28;20570;-69
2022/12/25 09:01:56;;;;;;;16.38;6.40;;;8.30;99.90;;;;;;5048919;28;20048;-69
2022/12/25 09:04:22;;;;;;;16.85;5.97;;;8.30;99.90;;;;;;5049274;28;20044;-69
2022/12/25 09:06:49;;;;;;;15.90;5.47;;;8.30;99.90;;;;;;5043190;28;20045;-70
2022/12/25 09:09:14;;;;;;;20.08;5.70;;;8.40;99.90;;;;;;5030383;28;20053;-69
2022/12/25 09:11:43;;;;;;;19.77;6.35;;;8.40;99.90;;;;;;5029795;28;20103;-70
2022/12/25 09:14:08;;;;;;;19.08;5.72;;;8.40;99.90;;;;;;5029115;28;20049;-69
2022/12/25 09:16:34;;;;;;;19.80;5.00;;;8.40;99.90;;;;;;5040624;28;20049;-70
2022/12/25 09:19:01;;;;;;;;;;;8.50;99.90;;;;;;5036628;28;20096;-69
2022/12/25 09:21:26;;;;;;;13.25;5.60;;;8.50;99.90;;;;;;5047385;28;19924;-69
2022/12/25 09:23:52;;;;;;;14.68;5.22;;;8.50;99.90;;;;;;5041446;28;20045;-70
2022/12/25 09:26:19;;;;;;;14.00;5.57;;;8.60;99.90;;;;;;5042740;28;20609;-72
2022/12/25 09:28:45;;;;;;;16.83;5.50;;;8.60;99.90;;;;;;5046609;28;20068;-71
2022/12/25 09:31:11;;;;;;;16.45;5.60;;;8.60;99.90;;;;;;5040415;28;20049;-69
2022/12/25 09:33:36;;;;;;;20.40;5.97;;;8.70;99.90;;;;;;5045072;28;20542;-68
2022/12/25 09:36:05;;;;;;;15.65;5.65;;;8.70;99.90;;;;;;5046345;28;20057;-69
2022/12/25 09:38:32;;;;;;;11.48;4.80;;;8.70;99.90;;;;;;5051759;28;20164;-69
2022/12/25 09:41:21;;;;;;;13.60;5.15;;;8.60;99.90;;;;;;5049945;28;20044;-69
2022/12/25 09:43:51;;;;;;;18.45;5.05;;;8.70;99.90;;;;;;5047756;28;20037;-71
2022/12/25 09:46:21;;;;;;;14.07;5.07;;;8.80;99.90;;;;;;5035932;28;20396;-69
2022/12/25 09:49:03;;;;;;;14.63;5.05;;;8.80;99.90;;;;;;5049062;28;20045;-70
2022/12/25 09:51:32;;;;;;;14.43;5.70;;;8.80;99.90;;;;;;5048449;28;20049;-69
2022/12/25 09:54:10;;;;;;;16.70;5.20;;;8.80;99.90;;;;;;5048701;28;20076;-69
2022/12/25 09:56:36;;;;;;;11.98;5.43;;;8.70;99.90;;;;;;5048522;28;20116;-69
2022/12/25 09:59:02;;;;;;;13.68;5.45;;;8.80;99.90;;;;;;5048404;28;20120;-70
2022/12/25 10:01:49;;;;;;;;;;;8.80;99.90;;;;;;5048702;28;20072;-69
2022/12/25 10:04:23;;;;;;;14.90;5.68;;;8.70;99.90;;;;;;5038687;28;20015;-69
2022/12/25 10:07:04;;;;;;;17.85;5.60;;;8.70;99.90;;;;;;5047680;28;20048;-70
2022/12/25 10:10:14;;;;;;;14.32;5.68;;;8.80;99.90;;;;;;5044597;28;20563;-69
2022/12/25 10:12:50;;;;;;;15.32;6.30;;;8.70;99.90;;;;;;5041408;28;20089;-69
2022/12/25 10:15:53;;;;;;;14.83;6.27;;;8.70;99.90;;;;;;5051638;28;20048;-70
2022/12/25 10:18:52;;;;;;;11.35;5.47;;;8.70;99.90;;;;;;5052814;28;20279;-70
2022/12/25 10:21:18;;;;;;;12.85;5.68;;;8.70;99.90;;;;;;5052359;28;20044;-79
2022/12/25 10:23:58;;;;;;;16.52;5.53;;;8.80;99.90;;;;;;5052790;28;20650;-70
2022/12/25 10:26:25;;;;;;;14.30;5.78;;;8.90;99.90;;;;;;5052498;28;20052;-70
2022/12/25 10:28:59;;;;;;;16.27;5.95;;;8.80;99.90;;;;;;5051905;28;20065;-71
2022/12/25 10:31:27;;;;;;;15.18;5.70;;;8.90;99.90;;;;;;5051884;28;20139;-71
2022/12/25 10:33:53;;;;;;;15.43;6.07;;;8.80;99.90;;;;;;5051189;28;20434;-71
2022/12/25 10:36:25;;;;;;;12.43;5.72;;;8.80;99.90;;;;;;5052133;28;20397;-70
2022/12/25 10:38:52;;;;;;;15.25;5.75;;;8.80;99.90;;;;;;5049735;28;20661;-71
2022/12/25 10:41:39;;;;;;;15.73;5.68;;;8.90;99.90;;;;;;5040206;28;20081;-70
2022/12/25 10:44:19;;;;;;;15.55;5.57;;;8.90;99.90;;;;;;5047176;28;20041;-70
2022/12/25 10:46:50;;;;;;;15.98;6.30;;;8.90;99.90;;;;;;5052071;28;20135;-71
2022/12/25 10:49:19;;;;;;;14.45;5.32;;;8.90;99.90;;;;;;5051879;28;20060;-70
2022/12/25 10:51:45;;;;;;;17.52;4.95;;;8.90;99.90;;;;;;5041154;28;20049;-71
2022/12/25 10:54:22;;;;;;;19.42;6.13;;;8.90;99.90;;;;;;5031371;28;20045;-70
2022/12/25 10:57:02;;;;;;;12.80;5.00;;;9.00;99.90;;;;;;5043906;28;20123;-70
2022/12/25 10:59:33;;;;;;;13.85;5.22;;;9.00;99.90;;;;;;5055766;28;20503;-70
2022/12/25 11:02:32;;;;;;;12.63;5.05;;;9.00;99.90;;;;;;5048919;28;20051;-70
2022/12/25 11:05:07;;;;;;;14.60;6.85;;;9.10;99.90;;;;;;5048336;28;20494;-70
2022/12/25 11:07:45;;;;;;;12.48;5.25;;;9.10;99.90;;;;;;5029803;28;20120;-70
2022/12/25 11:10:22;;;;;;;17.40;5.50;;;9.10;99.90;;;;;;5031552;28;20037;-70
2022/12/25 11:12:49;;;;;;;15.50;5.50;;;9.20;99.90;;;;;;5031816;28;20055;-70
2022/12/25 11:15:33;;;;;;;;;;;9.10;99.90;;;;;;5035451;28;20049;-70
2022/12/25 11:17:58;;;;;;;13.35;5.63;;;9.10;99.90;;;;;;5035933;28;19925;-70
2022/12/25 11:20:24;;;;;;;16.33;6.22;;;9.10;99.90;;;;;;5039612;28;20094;-70
2022/12/25 11:22:50;;;;;;;12.82;5.50;;;9.10;99.90;;;;;;5032063;28;20044;-70
2022/12/25 11:25:26;;;;;;;;;;;9.10;99.90;;;;;;5029409;28;20041;-70
2022/12/25 11:28:12;;;;;;;15.48;5.80;;;9.10;99.90;;;;;;5028905;28;19925;-70
2022/12/25 11:30:39;;;;;;;12.40;5.30;;;9.10;99.90;;;;;;5044884;28;20490;-70
2022/12/25 11:33:11;;;;;;;14.68;5.55;;;9.00;99.90;;;;;;5028876;28;20060;-71
2022/12/25 11:35:46;;;;;;;10.95;5.63;;;9.00;99.90;;;;;;5028432;28;20049;-70
2022/12/25 11:38:12;;;;;;;17.08;5.88;;;9.00;99.90;;;;;;5032385;28;20048;-70
2022/12/25 11:40:51;;;;;;;12.02;5.28;;;9.00;99.90;;;;;;5032510;28;20037;-71
2022/12/25 11:43:36;;;;;;;18.40;5.70;;;9.00;99.90;;;;;;5032621;28;20436;-70
2022/12/25 11:46:05;;;;;;;11.85;5.05;;;9.00;99.90;;;;;;5050975;28;20438;-70
2022/12/25 11:48:37;;;;;;;17.27;5.95;;;9.00;99.90;;;;;;5051651;28;20041;-70
2022/12/25 11:51:05;;;;;;;13.80;6.30;;;9.00;99.90;;;;;;5050604;28;20048;-71
2022/12/25 11:53:52;;;;;;;13.25;5.25;;;9.00;99.90;;;;;;5040107;28;20114;-71
2022/12/25 11:56:24;;;;;;;14.30;5.90;;;9.00;99.90;;;;;;5047204;28;20854;-71
2022/12/25 11:58:53;;;;;;;17.00;5.57;;;8.90;99.90;;;;;;5039390;28;20042;-72
2022/12/25 12:01:48;;;;;;;15.05;5.80;;;8.90;99.90;;;;;;5045470;28;20636;-71
2022/12/25 12:04:37;;;;;;;13.25;5.85;;;8.90;99.90;;;;;;5051252;28;20442;-71
2022/12/25 12:07:25;;;;;;;10.38;4.65;;;8.90;99.90;;;;;;5050329;28;20045;-72
2022/12/25 12:09:59;;;;;;;15.82;5.78;;;8.90;99.90;;;;;;5051647;28;20048;-70
2022/12/25 12:12:41;;;;;;;14.40;5.25;;;8.90;99.90;;;;;;5051228;28;20132;-70
2022/12/25 12:15:26;;;;;;;12.43;5.15;;;8.90;99.90;;;;;;5050637;28;20045;-70
2022/12/25 12:17:52;;;;;;;18.48;6.03;;;8.90;99.90;;;;;;5051072;28;20056;-69
2022/12/25 12:20:35;;;;;;;13.15;4.90;;;8.90;99.90;;;;;;5050675;28;20053;-70
2022/12/25 12:23:09;;;;;;;13.38;4.97;;;8.90;99.90;;;;;;5050206;28;20041;-71
2022/12/25 12:25:39;;;;;;;11.38;5.43;;;8.90;99.90;;;;;;5051486;28;20694;-70
2022/12/25 12:28:05;;;;;;;20.58;4.93;;;8.90;99.90;;;;;;5048553;28;20114;-71
2022/12/25 12:30:34;;;;;;;12.52;5.88;;;8.90;99.90;;;;;;5043050;28;20053;-70
2022/12/25 12:33:05;;;;;;;20.17;6.32;;;8.90;99.90;;;;;;5049724;28;20045;-71
2022/12/25 12:35:37;;;;;;;14.52;5.00;;;9.00;99.90;;;;;;5047050;28;20483;-71
2022/12/25 12:38:17;;;;;;;10.40;5.38;;;8.90;99.90;;;;;;5029071;28;20056;-71
2022/12/25 12:41:01;;;;;;;14.73;5.03;;;9.00;99.90;;;;;;5044015;28;20051;-70
2022/12/25 12:43:37;;;;;;;10.85;4.72;;;9.00;99.90;;;;;;5040385;28;20048;-70
2022/12/25 12:46:14;;;;;;;16.25;5.70;;;9.00;99.90;;;;;;5048368;28;20083;-71
2022/12/25 12:48:43;;;;;;;13.35;5.25;;;9.00;99.90;;;;;;5047301;28;20049;-68
2022/12/25 12:51:25;;;;;;;14.73;5.22;;;9.00;99.90;;;;;;5037729;28;20593;-70
2022/12/25 12:54:03;;;;;;;11.52;4.38;;;9.00;99.90;;;;;;5040242;28;20068;-70
2022/12/25 12:56:29;;;;;;;18.10;5.35;;;9.00;99.90;;;;;;5048795;28;20076;-70
2022/12/25 12:58:54;;;;;;;19.67;5.82;;;9.00;99.90;;;;;;5036089;28;20477;-70
2022/12/25 13:01:26;;;;;;;10.73;4.93;;;8.90;99.90;;;;;;5039873;28;20049;-69
2022/12/25 13:04:18;;;;;;;13.02;5.57;;;8.90;99.90;;;;;;5050638;28;20437;-70
2022/12/25 13:07:07;;;;;;;12.88;4.32;;;8.90;99.90;;;;;;5045116;28;20080;-70
2022/12/25 13:09:44;;;;;;;10.15;4.10;;;8.90;99.90;;;;;;5050723;28;20041;-69
2022/12/25 13:12:11;;;;;;;11.75;4.60;;;8.80;99.90;;;;;;5047732;28;20139;-69
2022/12/25 13:14:42;;;;;;;12.13;5.15;;;8.80;99.90;;;;;;5046610;28;20048;-70
2022/12/25 13:17:08;;;;;;;13.57;4.90;;;8.80;99.90;;;;;;5040071;28;20118;-69
2022/12/25 13:19:35;;;;;;;18.10;5.32;;;8.80;99.90;;;;;;5037122;28;20450;-72
2022/12/25 13:22:05;;;;;;;15.30;5.05;;;8.70;99.90;;;;;;5036100;28;20125;-71
2022/12/25 13:24:36;;;;;;;9.55;4.40;;;8.70;99.90;;;;;;5037357;28;20044;-70
2022/12/25 13:27:21;;;;;;;10.57;4.90;;;8.70;99.90;;;;;;5039960;28;20059;-70
2022/12/25 13:29:46;;;;;;;14.23;5.70;;;8.70;99.90;;;;;;5035621;28;20092;-69
2022/12/25 13:32:29;;;;;;;10.07;4.07;;;8.70;99.90;;;;;;5032922;28;20842;-69
2022/12/25 13:34:55;;;;;;;12.73;4.82;;;8.70;99.90;;;;;;5032186;28;20075;-69
2022/12/25 13:37:24;;;;;;;14.05;5.32;;;8.70;99.90;;;;;;5044003;28;20392;-69
2022/12/25 13:39:58;;;;;;;13.68;5.65;;;8.70;99.90;;;;;;5042253;28;20380;-71
2022/12/25 13:42:28;;;;;;;16.17;5.00;;;8.60;99.90;;;;;;5033225;28;20106;-70
2022/12/25 13:45:05;;;;;;;15.05;5.82;;;8.60;99.90;;;;;;5037779;28;20482;-70
2022/12/25 13:47:30;;;;;;;;;;;8.60;99.90;;;;;;5049135;28;20032;-69
2022/12/25 13:49:58;;;;;;;12.85;4.95;;;8.60;99.90;;;;;;5049256;28;19927;-70
2022/12/25 13:52:31;;;;;;;15.82;4.97;;;8.60;99.90;;;;;;5048750;28;20040;-70
2022/12/25 13:55:00;;;;;;;12.23;5.35;;;8.60;99.90;;;;;;5037593;28;20045;-70
2022/12/25 13:57:34;;;;;;;13.30;5.35;;;8.60;99.90;;;;;;5048336;28;20466;-70
2022/12/25 14:00:00;;;;;;;19.48;5.25;;;8.60;99.90;;;;;;5049283;28;20056;-70
2022/12/25 14:02:34;;;;;;;11.40;5.55;;;8.60;99.90;;;;;;5048616;28;20084;-70
2022/12/25 14:05:00;;;;;;;11.25;5.07;;;8.60;99.90;;;;;;5045764;28;20037;-70
2022/12/25 14:07:26;;;;;;;15.85;5.03;;;8.50;99.90;;;;;;5044285;28;20037;-70
2022/12/25 14:10:03;;;;;;;12.07;5.10;;;8.50;99.90;;;;;;5041855;28;20110;-70
2022/12/25 14:12:30;;;;;;;10.88;4.60;;;8.50;99.90;;;;;;5038083;28;20049;-70
2022/12/25 14:14:57;;;;;;;11.15;5.07;;;8.50;99.90;;;;;;5056778;28;20056;-70
2022/12/25 14:17:24;;;;;;;13.48;4.95;;;8.50;99.90;;;;;;5042253;28;20084;-70
2022/12/25 14:19:58;;;;;;;13.23;5.13;;;8.50;99.90;;;;;;5042091;28;20083;-69
2022/12/25 14:22:24;;;;;;;14.50;5.95;;;8.50;99.90;;;;;;5044501;28;20068;-70
2022/12/25 14:24:50;;;;;;;12.98;6.30;;;8.40;99.90;;;;;;5042400;28;20069;-70
2022/12/25 14:27:25;;;;;;;15.63;5.78;;;8.50;99.90;;;;;;5043980;28;20065;-70
2022/12/25 14:29:54;;;;;;;16.77;6.75;;;8.50;99.90;;;;;;5041788;28;20360;-70
2022/12/25 14:32:27;;;;;;;15.25;5.85;;;8.50;99.90;;;;;;5047410;28;20144;-70
2022/12/25 14:34:59;;;;;;;12.45;6.18;;;8.50;99.90;;;;;;5039945;28;20080;-70
2022/12/25 14:37:28;;;;;;;22.77;7.60;;;8.50;99.90;;;;;;5043492;28;20056;-73
2022/12/25 14:39:55;;;;;;;17.65;6.72;;;8.40;99.90;;;;;;5048369;28;20453;-71
2022/12/25 14:42:24;;;;;;;15.55;6.50;;;8.40;99.90;;;;;;5038060;28;20552;-72
2022/12/25 14:45:02;;;;;;;19.80;6.50;;;8.40;99.90;;;;;;5037879;28;20077;-70
2022/12/25 14:47:28;;;;;;;14.05;6.00;;;8.50;99.90;;;;;;5042502;28;20613;-70
2022/12/25 14:49:55;;;;;;;27.08;6.43;;;8.30;99.90;;;;;;5044947;28;20075;-70
2022/12/25 14:52:32;;;;;;;;;;;8.40;99.90;;;;;;5045004;28;20048;-70